Wahpeton, MN

10:31 PM CST on November 19, 2019 (GMT -0600)
Stern

Weather History for KBWP - September, 2019

Change the Weather History Date:

Tuesday, September 24, 2019

  Actual Average (WUND) Record (WUND)
Temperature  
Mean Temperature 61 °F -  
Max Temperature 71 °F - - (-1)
Min Temperature 51 °F - - (-1)
Degree Days  
Heating Degree Days 4    
Growing Degree Days 11 (Base 50)    
Moisture  
Dew Point 50 °F    
Average Humidity 69    
Maximum Humidity 88    
Minimum Humidity 49    
Precipitation  
Precipitation 0.00 in - - ()
Sea Level Pressure  
Sea Level Pressure 29.67 in    
Wind  
Wind Speed 6 mph ()    
Max Wind Speed 22 mph    
Max Gust Speed 25 mph    
Visibility 10.0 miles    
Events      
Averages and records for this station are not official NWS values.
T = Trace of Precipitation, MM = Missing Value Source: Averaged Metar Reports

Daily Weather History Graph

Daily Weather History Graph

Search for Another Location

Airport or City:

Astronomy

Sep. 24, 2019 Rise Set
Actual Time 7:15 AM CDT 7:20 PM CDT
Civil Twilight 6:45 AM CDT 7:50 PM CDT
Nautical Twilight 6:10 AM CDT 8:25 PM CDT
Astronomical Twilight 5:34 AM CDT 9:01 PM CDT
Moon 1:41 AM CDT (9/24) 5:26 PM CDT (9/24)
Length of Visible Light 13h 04m
Length of Day
12h 04m
Waning Crescent, 23% of the Moon is Illuminated
Sep 24
Waning Crescent
Sep 28
New
Oct 5
First Quarter
Oct 13
Full
Oct 21
Last Quarter

Hourly Weather History & Observations

Time (CDT) Temp. Dew Point Humidity Pressure Visibility Wind Dir Wind Speed Gust Speed Precip Events Conditions
12:35 AM 55.4 °F 50.0 °F 82% 29.81 in 10.0 mi South 8.1 mph - N/A   Unknown
12:55 AM 55.4 °F 50.0 °F 82% 29.81 in 10.0 mi South 8.1 mph - N/A   Unknown
1:15 AM 55.4 °F 50.0 °F 82% 29.81 in 10.0 mi South 8.1 mph - N/A   Unknown
1:35 AM 55.4 °F 50.0 °F 82% 29.80 in 10.0 mi SSE 6.9 mph - N/A   Unknown
1:55 AM 55.4 °F 50.0 °F 82% 29.80 in 10.0 mi SSE 5.8 mph - N/A   Unknown
2:15 AM 55.4 °F 50.0 °F 82% 29.79 in 10.0 mi South 6.9 mph - N/A   Unknown
2:35 AM 55.4 °F 50.0 °F 82% 29.78 in 10.0 mi South 8.1 mph - N/A   Unknown
2:55 AM 55.4 °F 48.2 °F 77% 29.77 in 10.0 mi SSE 6.9 mph - N/A   Unknown
3:15 AM 53.6 °F 48.2 °F 82% 29.76 in 10.0 mi SSE 6.9 mph - N/A   Unknown
5:15 AM 51.8 °F 46.4 °F 82% 29.72 in 10.0 mi SSE 8.1 mph - N/A   Unknown
5:35 AM 51.8 °F 46.4 °F 82% 29.72 in 10.0 mi SSE 9.2 mph - N/A   Unknown
5:55 AM 51.8 °F 46.4 °F 82% 29.72 in 10.0 mi SE 6.9 mph - N/A   Unknown
6:15 AM 51.8 °F 46.4 °F 82% 29.70 in 10.0 mi SE 8.1 mph - N/A   Unknown
6:35 AM 51.8 °F 46.4 °F 82% 29.70 in 10.0 mi SE 6.9 mph - N/A   Unknown
6:55 AM 51.8 °F 46.4 °F 82% 29.70 in 10.0 mi SE 6.9 mph - N/A   Unknown
7:15 AM 51.8 °F 46.4 °F 82% 29.69 in 10.0 mi SSE 8.1 mph - N/A   Unknown
7:35 AM 51.8 °F 48.2 °F 88% 29.70 in 10.0 mi SE 5.8 mph - N/A   Unknown
7:55 AM 53.6 °F 48.2 °F 82% 29.70 in 10.0 mi ESE 3.5 mph - N/A   Unknown
8:15 AM 53.6 °F 48.2 °F 82% 29.72 in 10.0 mi Calm Calm - N/A   Unknown
8:35 AM 53.6 °F 50.0 °F 88% 29.74 in 10.0 mi WNW 4.6 mph - N/A   Unknown
8:55 AM 55.4 °F 50.0 °F 82% 29.74 in 10.0 mi Calm Calm - N/A   Unknown
9:15 AM 55.4 °F 50.0 °F 82% 29.73 in 10.0 mi Calm Calm - N/A   Unknown
9:35 AM 57.2 °F 50.0 °F 77% 29.72 in 10.0 mi ESE 3.5 mph - N/A   Unknown
9:55 AM 57.2 °F 51.8 °F 82% 29.73 in 10.0 mi Calm Calm - N/A   Unknown
10:15 AM 59.0 °F 51.8 °F 77% 29.72 in 10.0 mi Calm Calm - N/A   Unknown
10:35 AM 60.8 °F 51.8 °F 72% 29.73 in 10.0 mi Calm Calm - N/A   Unknown
10:55 AM 62.6 °F 51.8 °F 68% 29.72 in 10.0 mi Calm Calm - N/A   Unknown
11:15 AM 62.6 °F 53.6 °F 72% 29.72 in 10.0 mi Calm Calm - N/A   Unknown
11:35 AM 62.6 °F 51.8 °F 68% 29.71 in 10.0 mi NE 3.5 mph - N/A   Unknown
11:55 AM 64.4 °F 53.6 °F 68% 29.70 in 10.0 mi Calm Calm - N/A   Unknown
12:15 PM 64.4 °F 53.6 °F 68% 29.68 in 10.0 mi ESE 4.6 mph - N/A   Unknown
12:35 PM 66.2 °F 51.8 °F 60% 29.65 in 10.0 mi East 10.4 mph - N/A   Unknown
12:55 PM 68.0 °F 51.8 °F 56% 29.64 in 10.0 mi SE 9.2 mph - N/A   Unknown
1:15 PM 68.0 °F 51.8 °F 56% 29.63 in 10.0 mi SE 8.1 mph - N/A   Unknown
1:35 PM 68.0 °F 51.8 °F 56% 29.63 in 10.0 mi SE 4.6 mph - N/A   Unknown
1:55 PM 68.0 °F 51.8 °F 56% 29.64 in 10.0 mi South 9.2 mph - N/A   Unknown
2:15 PM 68.0 °F 53.6 °F 60% 29.63 in 10.0 mi South 8.1 mph - N/A   Unknown
2:35 PM 68.0 °F 53.6 °F 60% 29.63 in 10.0 mi SSW 6.9 mph - N/A   Unknown
2:55 PM 69.8 °F 53.6 °F 56% 29.62 in 10.0 mi SW 4.6 mph - N/A   Unknown
3:15 PM 69.8 °F 53.6 °F 56% 29.62 in 10.0 mi SW 5.8 mph - N/A   Unknown
3:35 PM 69.8 °F 53.6 °F 56% 29.62 in 10.0 mi SSW 6.9 mph - N/A   Unknown
3:55 PM 71.6 °F 53.6 °F 53% 29.62 in 10.0 mi SW 5.8 mph - N/A   Unknown
4:15 PM 69.8 °F 53.6 °F 56% 29.62 in 10.0 mi WSW 9.2 mph - N/A   Unknown
4:35 PM 69.8 °F 53.6 °F 56% 29.62 in 10.0 mi SW 8.1 mph - N/A   Unknown
4:55 PM 71.6 °F 53.6 °F 53% 29.62 in 10.0 mi WSW 10.4 mph - N/A   Unknown
5:15 PM 71.6 °F 51.8 °F 50% 29.61 in 10.0 mi WSW 8.1 mph - N/A   Unknown
5:35 PM 71.6 °F 51.8 °F 50% 29.61 in 10.0 mi WSW 9.2 mph - N/A   Unknown
5:55 PM 71.6 °F 51.8 °F 50% 29.60 in 10.0 mi West 12.7 mph 19.6 mph N/A   Unknown
6:15 PM 69.8 °F 50.0 °F 49% 29.60 in 10.0 mi West 9.2 mph - N/A   Unknown
6:35 PM 69.8 °F 51.8 °F 53% 29.60 in 10.0 mi WNW 8.1 mph - N/A   Unknown
6:55 PM 68.0 °F 50.0 °F 52% 29.60 in 10.0 mi WNW 9.2 mph - N/A   Unknown
7:15 PM 66.2 °F 50.0 °F 56% 29.60 in 10.0 mi WNW 5.8 mph - N/A   Unknown
7:35 PM 64.4 °F 50.0 °F 59% 29.59 in 10.0 mi West 6.9 mph - N/A   Unknown
7:55 PM 62.6 °F 50.0 °F 63% 29.59 in 10.0 mi West 6.9 mph - N/A   Unknown
8:15 PM 62.6 °F 50.0 °F 63% 29.59 in 10.0 mi West 6.9 mph - N/A   Unknown
8:35 PM 60.8 °F 50.0 °F 68% 29.60 in 10.0 mi WSW 6.9 mph - N/A   Unknown
8:55 PM 60.8 °F 50.0 °F 68% 29.59 in 10.0 mi WSW 6.9 mph - N/A   Unknown
9:15 PM 59.0 °F 50.0 °F 72% 29.59 in 10.0 mi WSW 5.8 mph - N/A   Unknown
9:35 PM 57.2 °F 50.0 °F 77% 29.59 in 10.0 mi WSW 5.8 mph - N/A   Unknown
9:55 PM 57.2 °F 50.0 °F 77% 29.59 in 10.0 mi WSW 9.2 mph - N/A   Unknown
10:35 PM 60.8 °F 50.0 °F 68% 29.60 in 10.0 mi WNW 18.4 mph - N/A   Unknown
10:55 PM 60.8 °F 48.2 °F 63% 29.61 in 10.0 mi WNW 21.9 mph - N/A   Unknown
11:15 PM 60.8 °F 46.4 °F 59% 29.61 in 10.0 mi WNW 20.7 mph 25.3 mph N/A   Unknown
11:35 PM 60.8 °F 46.4 °F 59% 29.60 in 10.0 mi NW 13.8 mph 20.7 mph N/A   Unknown
11:55 PM 60.8 °F 44.6 °F 55% 29.61 in 10.0 mi WNW 13.8 mph - N/A   Unknown